Time;durP1;ratioP1;P1;durP2;ratioP2;P2;SDS_P1;SDS_P2;PMS_P1;PMS_P2;Temp;Humidity;BMP_temperature;BMP_pressure;BME280_temperature;BME280_humidity;BME280_pressure;Samples;Min_cycle;Max_cycle;Signal;HPM_P1;HPM_P2
2022/03/29 00:00:46;;;;;;;40.65;8.00;;;13.40;68.20;;;;;;20695586;28;20047;-56
2022/03/29 00:10:48;;;;;;;29.45;7.28;;;13.30;68.40;;;;;;20682688;28;20065;-56
2022/03/29 00:20:50;;;;;;;29.75;8.30;;;13.30;68.40;;;;;;20682047;28;20057;-56
2022/03/29 00:30:52;;;;;;;34.28;7.97;;;13.20;68.60;;;;;;20680840;28;20560;-56
2022/03/29 00:40:54;;;;;;;42.80;8.63;;;13.20;68.40;;;;;;20679579;28;20141;-57
2022/03/29 00:50:56;;;;;;;35.92;8.30;;;13.10;68.60;;;;;;20679220;28;20050;-55
2022/03/29 01:01:01;;;;;;;35.53;7.90;;;13.10;68.70;;;;;;20678331;28;20046;-55
2022/03/29 01:11:12;;;;;;;34.92;7.78;;;13.00;68.80;;;;;;20676492;28;20050;-56
2022/03/29 01:21:17;;;;;;;38.83;8.10;;;12.90;69.10;;;;;;20677469;28;20505;-55
2022/03/29 01:31:23;;;;;;;37.58;8.15;;;12.90;69.20;;;;;;20675650;28;20471;-56
2022/03/29 01:41:31;;;;;;;42.03;8.27;;;12.80;69.00;;;;;;20690913;28;20050;-56
2022/03/29 01:51:36;;;;;;;28.35;6.35;;;12.90;68.90;;;;;;20675258;28;20116;-56
2022/03/29 02:01:47;;;;;;;29.98;6.65;;;13.00;68.70;;;;;;20674514;28;20466;-55
2022/03/29 02:11:50;;;;;;;25.08;6.35;;;13.00;68.40;;;;;;20674244;28;20418;-57
2022/03/29 02:21:54;;;;;;;25.10;7.35;;;13.00;68.10;;;;;;20672430;28;20054;-56
2022/03/29 02:31:56;;;;;;;39.15;7.32;;;12.90;68.30;;;;;;20672828;28;20062;-58
2022/03/29 02:41:59;;;;;;;35.33;7.47;;;13.00;68.30;;;;;;20672469;28;20490;-55
2022/03/29 02:52:11;;;;;;;27.55;7.75;;;12.80;68.60;;;;;;20672834;28;20042;-56
2022/03/29 03:02:15;;;;;;;25.40;6.25;;;12.80;68.50;;;;;;20686680;28;20495;-56
2022/03/29 03:12:24;;;;;;;30.75;7.47;;;12.70;68.60;;;;;;20671660;28;20058;-54
2022/03/29 03:22:27;;;;;;;39.95;7.43;;;12.70;68.90;;;;;;20670855;28;20060;-56
2022/03/29 03:32:33;;;;;;;37.17;6.38;;;12.60;68.20;;;;;;20668270;28;20538;-56
2022/03/29 03:42:37;;;;;;;46.70;6.97;;;12.60;68.20;;;;;;20666632;28;20062;-57
2022/03/29 03:52:39;;;;;;;37.15;7.50;;;12.40;68.40;;;;;;20666306;28;20189;-55
2022/03/29 04:02:42;;;;;;;41.05;8.38;;;12.30;68.60;;;;;;20665100;28;20057;-56
2022/03/29 04:12:44;;;;;;;35.95;7.32;;;12.30;68.40;;;;;;20665867;28;20054;-57
2022/03/29 04:22:46;;;;;;;37.83;8.23;;;12.40;68.20;;;;;;20665531;28;20061;-56
2022/03/29 04:32:48;;;;;;;43.80;8.23;;;12.50;67.90;;;;;;20665305;28;20054;-56
2022/03/29 04:42:52;;;;;;;51.58;8.00;;;12.50;67.60;;;;;;20672031;28;20057;-55
2022/03/29 04:52:57;;;;;;;42.38;7.68;;;12.50;67.50;;;;;;20680251;28;20046;-57
2022/03/29 05:02:58;;;;;;;45.70;7.45;;;12.50;67.30;;;;;;20678614;28;20052;-56
2022/03/29 05:13:00;;;;;;;34.75;6.90;;;12.40;67.30;;;;;;20678111;28;20050;-56
2022/03/29 05:23:06;;;;;;;40.22;7.10;;;12.40;67.30;;;;;;20676704;28;20058;-56
2022/03/29 05:33:15;;;;;;;49.88;7.43;;;12.50;67.10;;;;;;20676077;28;20054;-56
2022/03/29 05:43:17;;;;;;;37.77;8.40;;;12.50;67.40;;;;;;20675800;28;20396;-56
2022/03/29 05:53:19;;;;;;;40.45;7.70;;;12.40;68.00;;;;;;20674556;28;20057;-57
2022/03/29 06:03:21;;;;;;;34.45;7.32;;;12.40;67.80;;;;;;20673717;28;20127;-56
2022/03/29 06:13:23;;;;;;;41.58;8.05;;;12.30;67.80;;;;;;20671919;28;20050;-56
2022/03/29 06:23:25;;;;;;;33.10;7.80;;;12.20;68.40;;;;;;20671890;28;20059;-59
2022/03/29 06:33:27;;;;;;;34.65;6.82;;;12.20;68.70;;;;;;20671570;28;20553;-54
2022/03/29 06:43:29;;;;;;;41.28;7.78;;;12.20;69.00;;;;;;20669743;28;20057;-55
2022/03/29 06:53:31;;;;;;;33.15;7.70;;;12.30;68.90;;;;;;20671196;28;20055;-55
2022/03/29 07:03:35;;;;;;;38.50;8.40;;;12.40;68.70;;;;;;20666933;28;20050;-55
2022/03/29 07:13:39;;;;;;;34.97;8.77;;;12.40;69.10;;;;;;20667811;28;20050;-55
2022/03/29 07:23:40;;;;;;;34.08;8.43;;;12.40;70.10;;;;;;20667822;28;20058;-55
2022/03/29 07:33:42;;;;;;;41.70;8.93;;;12.50;70.90;;;;;;20667212;28;20082;-56
2022/03/29 07:43:44;;;;;;;40.08;8.52;;;12.60;71.40;;;;;;20667076;28;20061;-57
2022/03/29 07:53:47;;;;;;;28.55;8.80;;;12.70;71.70;;;;;;20666146;28;20133;-57
2022/03/29 08:03:49;;;;;;;33.85;8.38;;;12.80;71.70;;;;;;20666317;28;20180;-57
2022/03/29 08:13:50;;;;;;;32.65;7.50;;;13.00;71.40;;;;;;20667997;28;20559;-54
2022/03/29 08:23:52;;;;;;;31.48;8.30;;;13.00;71.00;;;;;;20680830;28;20050;-56
2022/03/29 08:33:54;;;;;;;34.60;8.98;;;13.00;71.20;;;;;;20680257;28;20050;-58
2022/03/29 08:43:56;;;;;;;38.28;9.32;;;13.10;71.40;;;;;;20679205;28;20133;-58
2022/03/29 08:53:58;;;;;;;39.50;8.52;;;13.10;71.60;;;;;;20683462;28;20047;-56
2022/03/29 09:04:21;;;;;;;37.90;8.48;;;13.20;71.30;;;;;;20678672;28;20054;-57
2022/03/29 09:14:26;;;;;;;34.17;8.32;;;13.50;70.90;;;;;;20635067;28;20086;-65
2022/03/29 09:24:31;;;;;;;35.92;8.13;;;14.10;68.80;;;;;;20659987;28;20062;-57
2022/03/29 09:34:34;;;;;;;39.13;8.73;;;14.20;68.10;;;;;;20677415;28;20372;-57
2022/03/29 09:44:35;;;;;;;32.42;8.23;;;14.20;67.30;;;;;;20676477;28;20047;-58
2022/03/29 09:54:38;;;;;;;31.88;6.80;;;14.50;66.20;;;;;;20675144;28;20096;-57
2022/03/29 10:04:40;;;;;;;40.78;7.85;;;14.70;64.40;;;;;;20675336;28;20430;-62
2022/03/29 10:14:42;;;;;;;37.17;6.72;;;15.10;62.50;;;;;;20677515;28;20634;-68
2022/03/29 10:24:44;;;;;;;36.83;6.78;;;15.80;59.70;;;;;;20675979;28;20502;-70
2022/03/29 10:35:01;;;;;;;36.97;7.32;;;15.80;58.10;;;;;;20673142;28;20043;-59
2022/03/29 10:45:03;;;;;;;40.05;6.00;;;16.00;56.10;;;;;;20670707;28;20050;-59
2022/03/29 10:55:21;;;;;;;31.15;6.38;;;16.50;55.40;;;;;;20668715;28;20057;-69
2022/03/29 11:05:22;;;;;;;31.83;7.30;;;17.10;53.70;;;;;;20670328;28;20406;-63
2022/03/29 11:15:24;;;;;;;36.75;7.82;;;17.00;53.40;;;;;;20668668;28;20050;-69
2022/03/29 11:25:28;;;;;;;50.40;8.98;;;17.30;53.10;;;;;;20672475;28;20137;-63
2022/03/29 11:35:30;;;;;;;40.28;7.47;;;17.60;52.20;;;;;;20666493;28;20080;-58
2022/03/29 11:45:43;;;;;;;30.00;6.35;;;17.60;52.10;;;;;;20665674;28;20058;-62
2022/03/29 11:56:03;;;;;;;39.30;6.70;;;17.70;51.50;;;;;;20689598;28;20180;-62
2022/03/29 12:06:15;;;;;;;34.90;7.90;;;17.80;50.50;;;;;;20692332;28;20062;-64
2022/03/29 12:16:23;;;;;;;36.33;6.47;;;18.20;49.40;;;;;;20692068;28;20054;-75
2022/03/29 12:26:25;;;;;;;36.72;7.13;;;17.80;49.70;;;;;;20692971;28;20058;-63
2022/03/29 12:36:28;;;;;;;30.63;6.60;;;17.70;50.30;;;;;;20692213;28;20052;-67
2022/03/29 12:46:33;;;;;;;34.58;6.32;;;17.70;50.10;;;;;;20705899;28;20085;-67
2022/03/29 12:56:36;;;;;;;37.20;7.40;;;17.70;49.70;;;;;;20690897;28;20078;-67
2022/03/29 13:06:43;;;;;;;47.10;8.00;;;17.80;49.60;;;;;;20683519;28;20058;-65
2022/03/29 13:16:50;;;;;;;43.15;6.65;;;18.10;49.30;;;;;;20693059;28;20412;-68
2022/03/29 13:26:53;;;;;;;40.00;6.93;;;;;;;;;;20676577;28;20061;-66
2022/03/29 13:36:55;;;;;;;33.40;5.60;;;18.60;48.40;;;;;;20676671;28;20054;-66
2022/03/29 13:46:57;;;;;;;37.47;7.20;;;18.60;48.20;;;;;;20674192;28;20057;-60
2022/03/29 13:56:59;;;;;;;39.30;7.40;;;19.10;48.00;;;;;;20675099;28;20155;-61
2022/03/29 14:07:00;;;;;;;32.67;6.60;;;18.70;49.90;;;;;;20673286;28;20077;-65
2022/03/29 14:17:02;;;;;;;41.75;7.68;;;18.50;50.50;;;;;;20672064;28;20054;-65
2022/03/29 14:27:04;;;;;;;28.85;6.78;;;18.20;51.30;;;;;;20673414;28;20054;-64
2022/03/29 14:37:06;;;;;;;37.05;7.85;;;18.20;51.70;;;;;;20694189;28;20133;-62
2022/03/29 14:47:08;;;;;;;37.30;7.50;;;18.00;52.30;;;;;;20671652;28;20054;-67
2022/03/29 14:57:11;;;;;;;27.23;6.07;;;17.90;52.90;;;;;;20670408;28;20196;-61
2022/03/29 15:07:14;;;;;;;40.90;7.05;;;17.90;53.20;;;;;;20668717;28;20123;-63
2022/03/29 15:17:16;;;;;;;33.65;6.03;;;17.70;53.80;;;;;;20667883;28;20460;-58
2022/03/29 15:27:20;;;;;;;23.88;6.05;;;17.90;53.60;;;;;;20665449;28;20062;-58
2022/03/29 15:37:21;;;;;;;29.00;5.75;;;17.80;53.50;;;;;;20667597;28;20487;-57
2022/03/29 15:47:23;;;;;;;36.28;6.45;;;17.70;53.80;;;;;;20665180;28;20050;-57
2022/03/29 15:57:26;;;;;;;31.17;6.07;;;17.80;53.70;;;;;;20666509;28;20418;-59
2022/03/29 16:07:28;;;;;;;30.50;6.18;;;17.70;53.70;;;;;;20679601;28;20461;-59
2022/03/29 16:17:30;;;;;;;27.75;6.05;;;17.70;53.90;;;;;;20664256;28;20050;-62
2022/03/29 16:27:32;;;;;;;34.38;6.50;;;17.60;54.00;;;;;;20665066;28;20149;-57
2022/03/29 16:37:34;;;;;;;32.70;6.22;;;17.90;54.00;;;;;;20669823;28;20046;-60
2022/03/29 16:47:36;;;;;;;29.58;6.05;;;18.20;53.40;;;;;;20677936;28;20058;-62
2022/03/29 16:57:37;;;;;;;30.55;5.90;;;18.20;53.30;;;;;;20678221;28;20173;-63
2022/03/29 17:07:39;;;;;;;30.92;5.60;;;18.20;53.10;;;;;;20677802;28;20404;-57
2022/03/29 17:17:41;;;;;;;27.92;5.45;;;18.00;53.40;;;;;;20676383;28;20193;-60
2022/03/29 17:27:45;;;;;;;31.45;6.38;;;18.00;53.10;;;;;;20675379;28;20144;-61
2022/03/29 17:37:49;;;;;;;34.97;6.78;;;17.80;53.00;;;;;;20675197;28;20047;-61
2022/03/29 17:47:50;;;;;;;18.83;4.47;;;17.80;52.70;;;;;;20671291;28;20046;-60
2022/03/29 17:57:52;;;;;;;24.00;5.05;;;17.70;53.80;;;;;;20671159;28;20054;-54
2022/03/29 18:07:53;;;;;;;26.70;5.50;;;17.70;54.30;;;;;;20669076;28;20046;-55
2022/03/29 18:17:55;;;;;;;24.30;5.20;;;17.80;55.20;;;;;;20670411;28;20038;-63
2022/03/29 18:27:58;;;;;;;24.48;5.53;;;17.60;56.30;;;;;;20685871;28;20133;-66
2022/03/29 18:37:59;;;;;;;27.73;5.35;;;17.60;56.70;;;;;;20674685;28;20054;-59
2022/03/29 18:48:02;;;;;;;24.27;4.65;;;17.60;56.90;;;;;;20679040;28;20077;-62
2022/03/29 18:58:05;;;;;;;25.40;4.10;;;17.60;56.90;;;;;;20672583;28;20403;-58
2022/03/29 19:08:07;;;;;;;11.10;3.10;;;17.70;56.70;;;;;;20671577;28;20130;-60
2022/03/29 19:18:09;;;;;;;10.00;3.17;;;17.40;56.80;;;;;;20666625;28;20133;-56
2022/03/29 19:28:10;;;;;;;19.67;4.97;;;16.90;57.20;;;;;;20666814;28;20058;-56
2022/03/29 19:38:14;;;;;;;9.75;2.25;;;16.60;57.30;;;;;;20666154;28;20065;-57
2022/03/29 19:48:16;;;;;;;9.48;2.47;;;16.60;57.00;;;;;;20665812;28;20054;-56
2022/03/29 19:58:18;;;;;;;10.80;2.25;;;16.20;57.70;;;;;;20665239;28;20133;-58
2022/03/29 20:08:19;;;;;;;12.40;2.53;;;15.80;59.70;;;;;;20679345;28;20124;-58
2022/03/29 20:18:21;;;;;;;13.52;2.80;;;15.60;61.30;;;;;;20681008;28;20053;-58
2022/03/29 20:28:23;;;;;;;10.10;2.13;;;15.50;61.70;;;;;;20697217;28;20085;-56
2022/03/29 20:38:24;;;;;;;9.13;2.42;;;15.40;61.10;;;;;;20680613;28;20082;-56
2022/03/29 20:48:26;;;;;;;10.32;2.17;;;15.30;61.60;;;;;;20680908;28;20092;-57
2022/03/29 20:58:28;;;;;;;8.60;2.00;;;15.10;62.10;;;;;;20679167;28;20107;-56
2022/03/29 21:08:35;;;;;;;16.75;3.20;;;14.80;63.20;;;;;;20679515;28;20051;-56
2022/03/29 21:18:38;;;;;;;18.35;4.20;;;14.70;65.20;;;;;;20679501;28;20125;-57
2022/03/29 21:28:40;;;;;;;29.63;5.22;;;14.50;67.40;;;;;;20676263;28;20084;-56
2022/03/29 21:38:42;;;;;;;15.57;4.55;;;14.20;69.70;;;;;;20677478;28;20053;-57
2022/03/29 21:48:44;;;;;;;20.38;5.57;;;13.80;71.90;;;;;;20675435;28;20136;-56
2022/03/29 21:58:46;;;;;;;15.10;4.65;;;13.70;73.30;;;;;;20673437;28;20499;-56
2022/03/29 22:08:49;;;;;;;19.50;4.20;;;13.60;73.50;;;;;;20674804;28;20073;-56
2022/03/29 22:18:51;;;;;;;13.85;3.60;;;13.60;74.80;;;;;;20673195;28;20065;-61
2022/03/29 22:28:53;;;;;;;23.25;5.53;;;13.50;76.40;;;;;;20672199;28;20582;-57
2022/03/29 22:38:54;;;;;;;21.67;5.28;;;13.20;77.20;;;;;;20672321;28;20073;-57
2022/03/29 22:48:55;;;;;;;27.83;5.55;;;13.10;78.40;;;;;;20671994;28;20082;-55
2022/03/29 22:58:57;;;;;;;22.35;6.00;;;13.10;79.00;;;;;;20671506;28;20042;-58
2022/03/29 23:08:59;;;;;;;17.27;5.07;;;13.20;79.50;;;;;;20669241;28;20487;-57
2022/03/29 23:19:00;;;;;;;21.65;5.15;;;13.10;80.20;;;;;;20668685;28;20050;-57
2022/03/29 23:29:02;;;;;;;21.85;6.03;;;13.00;80.60;;;;;;20668163;28;20487;-57
2022/03/29 23:39:06;;;;;;;20.65;5.28;;;12.90;80.20;;;;;;20667849;28;20081;-55
2022/03/29 23:49:09;;;;;;;15.13;5.22;;;12.90;80.50;;;;;;20666256;28;20058;-57
2022/03/29 23:59:12;;;;;;;18.70;5.43;;;13.00;80.80;;;;;;20666811;28;20046;-57
